sensor_id;sensor_type;location;lat;lon;timestamp;pressure;altitude;pressure_sealevel;temperature;humidity
69535;BME280;56754;51.568;5.048;2022-08-07T00:01:14;102656.72;;;22.07;50.57
69535;BME280;56754;51.568;5.048;2022-08-07T00:03:40;102652.75;;;22.04;51.35
69535;BME280;56754;51.568;5.048;2022-08-07T00:06:05;102651.13;;;22.03;51.07
69535;BME280;56754;51.568;5.048;2022-08-07T00:08:31;102655.00;;;22.02;51.32
69535;BME280;56754;51.568;5.048;2022-08-07T00:10:56;102652.66;;;22.01;51.14
69535;BME280;56754;51.568;5.048;2022-08-07T00:13:24;102652.97;;;21.99;51.12
69535;BME280;56754;51.568;5.048;2022-08-07T00:15:51;102647.06;;;21.97;51.16
69535;BME280;56754;51.568;5.048;2022-08-07T00:18:18;102646.63;;;21.95;51.37
69535;BME280;56754;51.568;5.048;2022-08-07T00:20:44;102645.03;;;21.94;51.19
69535;BME280;56754;51.568;5.048;2022-08-07T00:23:09;102634.50;;;21.93;51.70
69535;BME280;56754;51.568;5.048;2022-08-07T00:25:35;102631.31;;;21.91;51.27
69535;BME280;56754;51.568;5.048;2022-08-07T00:28:00;102638.69;;;21.90;51.51
69535;BME280;56754;51.568;5.048;2022-08-07T00:30:26;102641.75;;;21.89;51.51
69535;BME280;56754;51.568;5.048;2022-08-07T00:32:52;102637.44;;;21.88;51.80
69535;BME280;56754;51.568;5.048;2022-08-07T00:35:18;102632.38;;;21.86;52.01
69535;BME280;56754;51.568;5.048;2022-08-07T00:37:44;102626.09;;;21.86;51.50
69535;BME280;56754;51.568;5.048;2022-08-07T00:40:10;102620.22;;;21.84;51.80
69535;BME280;56754;51.568;5.048;2022-08-07T00:42:35;102623.28;;;21.82;51.78
69535;BME280;56754;51.568;5.048;2022-08-07T00:45:01;102624.44;;;21.81;51.96
69535;BME280;56754;51.568;5.048;2022-08-07T00:47:26;102621.69;;;21.81;52.19
69535;BME280;56754;51.568;5.048;2022-08-07T00:49:52;102621.25;;;21.79;52.10
69535;BME280;56754;51.568;5.048;2022-08-07T00:52:17;102622.38;;;21.78;52.57
69535;BME280;56754;51.568;5.048;2022-08-07T00:54:42;102620.81;;;21.77;52.38
69535;BME280;56754;51.568;5.048;2022-08-07T00:57:07;102616.50;;;21.76;52.38
69535;BME280;56754;51.568;5.048;2022-08-07T00:59:33;102622.28;;;21.74;52.09
69535;BME280;56754;51.568;5.048;2022-08-07T01:01:59;102617.97;;;21.73;52.33
69535;BME280;56754;51.568;5.048;2022-08-07T01:04:24;102610.94;;;21.72;52.29
69535;BME280;56754;51.568;5.048;2022-08-07T01:06:50;102615.59;;;21.72;52.63
69535;BME280;56754;51.568;5.048;2022-08-07T01:09:15;102614.00;;;21.71;52.30
69535;BME280;56754;51.568;5.048;2022-08-07T01:11:40;102609.69;;;21.70;52.56
69535;BME280;56754;51.568;5.048;2022-08-07T01:14:07;102606.19;;;21.69;52.46
69535;BME280;56754;51.568;5.048;2022-08-07T01:16:32;102614.66;;;21.68;52.39
69535;BME280;56754;51.568;5.048;2022-08-07T01:18:57;102598.69;;;21.66;52.72
69535;BME280;56754;51.568;5.048;2022-08-07T01:21:23;102601.75;;;21.65;52.92
69535;BME280;56754;51.568;5.048;2022-08-07T01:23:49;102598.59;;;21.63;52.92
69535;BME280;56754;51.568;5.048;2022-08-07T01:26:16;102596.22;;;21.61;52.86
69535;BME280;56754;51.568;5.048;2022-08-07T01:28:49;102597.34;;;21.60;53.10
69535;BME280;56754;51.568;5.048;2022-08-07T01:31:16;102602.00;;;21.60;52.76
69535;BME280;56754;51.568;5.048;2022-08-07T01:33:43;102596.88;;;21.58;52.75
69535;BME280;56754;51.568;5.048;2022-08-07T01:36:08;102599.16;;;21.56;53.06
69535;BME280;56754;51.568;5.048;2022-08-07T01:38:34;102597.56;;;21.55;52.99
69535;BME280;56754;51.568;5.048;2022-08-07T01:41:02;102592.81;;;21.52;53.00
69535;BME280;56754;51.568;5.048;2022-08-07T01:43:28;102593.59;;;21.52;52.83
69535;BME280;56754;51.568;5.048;2022-08-07T01:45:55;102591.25;;;21.51;52.94
69535;BME280;56754;51.568;5.048;2022-08-07T01:48:21;102594.28;;;21.49;52.98
69535;BME280;56754;51.568;5.048;2022-08-07T01:51:12;102591.09;;;21.47;53.12
69535;BME280;56754;51.568;5.048;2022-08-07T01:53:37;102584.09;;;21.46;53.16
69535;BME280;56754;51.568;5.048;2022-08-07T01:56:13;102585.22;;;21.45;53.45
69535;BME280;56754;51.568;5.048;2022-08-07T01:58:43;102577.41;;;21.44;53.31
69535;BME280;56754;51.568;5.048;2022-08-07T02:01:21;102583.19;;;21.42;53.63
69535;BME280;56754;51.568;5.048;2022-08-07T02:03:53;102576.97;;;21.42;53.37
69535;BME280;56754;51.568;5.048;2022-08-07T02:06:24;102574.56;;;21.40;53.00
69535;BME280;56754;51.568;5.048;2022-08-07T02:08:51;102576.84;;;21.38;53.05
69535;BME280;56754;51.568;5.048;2022-08-07T02:11:18;102577.19;;;21.37;53.54
69535;BME280;56754;51.568;5.048;2022-08-07T02:13:44;102579.13;;;21.36;53.35
69535;BME280;56754;51.568;5.048;2022-08-07T02:16:10;102575.91;;;21.34;53.57
69535;BME280;56754;51.568;5.048;2022-08-07T02:18:37;102578.16;;;21.32;53.57
69535;BME280;56754;51.568;5.048;2022-08-07T02:21:05;102580.44;;;21.30;53.47
69535;BME280;56754;51.568;5.048;2022-08-07T02:23:34;102574.19;;;21.29;53.52
69535;BME280;56754;51.568;5.048;2022-08-07T02:26:02;102571.47;;;21.29;53.79
69535;BME280;56754;51.568;5.048;2022-08-07T02:28:29;102577.28;;;21.28;53.70
69535;BME280;56754;51.568;5.048;2022-08-07T02:30:56;102574.09;;;21.26;53.78
69535;BME280;56754;51.568;5.048;2022-08-07T02:33:24;102569.78;;;21.25;53.77
69535;BME280;56754;51.568;5.048;2022-08-07T02:35:51;102572.84;;;21.23;53.90
69535;BME280;56754;51.568;5.048;2022-08-07T02:38:19;102563.09;;;21.22;53.82
69535;BME280;56754;51.568;5.048;2022-08-07T02:40:47;102568.06;;;21.20;54.15
69535;BME280;56754;51.568;5.048;2022-08-07T02:43:14;102568.44;;;21.19;53.89
69535;BME280;56754;51.568;5.048;2022-08-07T02:45:41;102565.25;;;21.17;53.81
69535;BME280;56754;51.568;5.048;2022-08-07T02:48:07;102563.69;;;21.16;53.97
69535;BME280;56754;51.568;5.048;2022-08-07T02:50:35;102563.22;;;21.13;54.08
69535;BME280;56754;51.568;5.048;2022-08-07T02:53:07;102560.50;;;21.13;54.18
69535;BME280;56754;51.568;5.048;2022-08-07T02:55:37;102557.31;;;21.11;54.08
69535;BME280;56754;51.568;5.048;2022-08-07T02:58:05;102553.00;;;21.10;53.78
69535;BME280;56754;51.568;5.048;2022-08-07T03:00:34;102556.09;;;21.09;53.95
69535;BME280;56754;51.568;5.048;2022-08-07T03:03:00;102558.00;;;21.08;54.06
69535;BME280;56754;51.568;5.048;2022-08-07T03:05:28;102559.13;;;21.07;54.26
69535;BME280;56754;51.568;5.048;2022-08-07T03:07:54;102560.28;;;21.06;54.36
69535;BME280;56754;51.568;5.048;2022-08-07T03:10:20;102561.38;;;21.05;54.30
69535;BME280;56754;51.568;5.048;2022-08-07T03:12:46;102565.25;;;21.04;54.39
69535;BME280;56754;51.568;5.048;2022-08-07T03:15:12;102562.84;;;21.03;54.54
69535;BME280;56754;51.568;5.048;2022-08-07T03:17:38;102562.41;;;21.01;54.76
69535;BME280;56754;51.568;5.048;2022-08-07T03:20:05;102556.19;;;21.00;54.67
69535;BME280;56754;51.568;5.048;2022-08-07T03:22:32;102561.94;;;20.99;54.60
69535;BME280;56754;51.568;5.048;2022-08-07T03:24:58;102560.03;;;20.99;54.27
69535;BME280;56754;51.568;5.048;2022-08-07T03:27:24;102557.66;;;20.98;54.76
69535;BME280;56754;51.568;5.048;2022-08-07T03:29:51;102563.09;;;20.98;54.67
69535;BME280;56754;51.568;5.048;2022-08-07T03:32:21;102557.19;;;20.96;54.79
69535;BME280;56754;51.568;5.048;2022-08-07T03:34:49;102552.91;;;20.95;54.76
69535;BME280;56754;51.568;5.048;2022-08-07T03:37:18;102547.47;;;20.95;54.33
69535;BME280;56754;51.568;5.048;2022-08-07T03:39:45;102544.28;;;20.93;54.91
69535;BME280;56754;51.568;5.048;2022-08-07T03:42:13;102548.13;;;20.92;55.05
69535;BME280;56754;51.568;5.048;2022-08-07T03:44:39;102551.97;;;20.90;55.05
69535;BME280;56754;51.568;5.048;2022-08-07T03:47:05;102553.91;;;20.90;54.86
69535;BME280;56754;51.568;5.048;2022-08-07T03:49:32;102560.47;;;20.89;55.00
69535;BME280;56754;51.568;5.048;2022-08-07T03:51:59;102559.69;;;20.88;54.95
69535;BME280;56754;51.568;5.048;2022-08-07T03:54:25;102562.41;;;20.88;54.71
69535;BME280;56754;51.568;5.048;2022-08-07T03:56:52;102562.72;;;20.87;54.81
69535;BME280;56754;51.568;5.048;2022-08-07T03:59:18;102566.59;;;20.86;54.59
69535;BME280;56754;51.568;5.048;2022-08-07T04:01:44;102563.41;;;20.84;55.04
69535;BME280;56754;51.568;5.048;2022-08-07T04:04:10;102568.84;;;20.84;54.99
69535;BME280;56754;51.568;5.048;2022-08-07T04:06:37;102571.91;;;20.82;55.02
69535;BME280;56754;51.568;5.048;2022-08-07T04:09:02;102575.75;;;20.81;55.18
69535;BME280;56754;51.568;5.048;2022-08-07T04:11:28;102573.38;;;20.80;55.24
69535;BME280;56754;51.568;5.048;2022-08-07T04:13:55;102574.47;;;20.79;55.33
69535;BME280;56754;51.568;5.048;2022-08-07T04:16:22;102578.34;;;20.78;55.02
69535;BME280;56754;51.568;5.048;2022-08-07T04:18:47;102577.56;;;20.77;55.48
69535;BME280;56754;51.568;5.048;2022-08-07T04:21:13;102578.66;;;20.76;54.98
69535;BME280;56754;51.568;5.048;2022-08-07T04:23:39;102581.72;;;20.75;54.60
69535;BME280;56754;51.568;5.048;2022-08-07T04:26:06;102578.22;;;20.74;55.12
69535;BME280;56754;51.568;5.048;2022-08-07T04:28:31;102576.97;;;20.72;55.05
69535;BME280;56754;51.568;5.048;2022-08-07T04:30:57;102567.69;;;20.73;55.40
69535;BME280;56754;51.568;5.048;2022-08-07T04:33:23;102576.97;;;20.72;55.35
69535;BME280;56754;51.568;5.048;2022-08-07T04:35:49;102573.47;;;20.71;55.34
69535;BME280;56754;51.568;5.048;2022-08-07T04:38:14;102577.28;;;20.70;55.50
69535;BME280;56754;51.568;5.048;2022-08-07T04:40:41;102579.22;;;20.70;55.05
69535;BME280;56754;51.568;5.048;2022-08-07T04:43:06;102573.00;;;20.69;55.47
69535;BME280;56754;51.568;5.048;2022-08-07T04:45:41;102576.50;;;20.70;55.51
69535;BME280;56754;51.568;5.048;2022-08-07T04:48:18;102574.13;;;20.68;55.58
69535;BME280;56754;51.568;5.048;2022-08-07T04:53:36;102579.88;;;20.66;55.29
69535;BME280;56754;51.568;5.048;2022-08-07T04:59:03;102586.47;;;20.65;54.85
69535;BME280;56754;51.568;5.048;2022-08-07T05:01:41;102584.84;;;20.64;55.17
69535;BME280;56754;51.568;5.048;2022-08-07T05:04:26;102590.28;;;20.64;54.84
69535;BME280;56754;51.568;5.048;2022-08-07T05:07:03;102590.75;;;20.66;54.92
69535;BME280;56754;51.568;5.048;2022-08-07T05:10:12;102588.84;;;20.67;54.90
69535;BME280;56754;51.568;5.048;2022-08-07T05:15:34;102593.94;;;20.68;54.64
69535;BME280;56754;51.568;5.048;2022-08-07T05:18:04;102591.22;;;20.68;54.96
69535;BME280;56754;51.568;5.048;2022-08-07T05:20:39;102588.16;;;20.70;54.95
69535;BME280;56754;51.568;5.048;2022-08-07T05:23:26;102591.22;;;20.68;54.85
69535;BME280;56754;51.568;5.048;2022-08-07T05:25:55;102597.44;;;20.69;55.01
69535;BME280;56754;51.568;5.048;2022-08-07T05:28:22;102604.47;;;20.70;55.00
69535;BME280;56754;51.568;5.048;2022-08-07T05:30:47;102602.56;;;20.71;54.79
69535;BME280;56754;51.568;5.048;2022-08-07T05:33:13;102595.53;;;20.70;54.80
69535;BME280;56754;51.568;5.048;2022-08-07T05:35:40;102604.13;;;20.72;54.68
69535;BME280;56754;51.568;5.048;2022-08-07T05:38:06;102604.94;;;20.72;54.55
69535;BME280;56754;51.568;5.048;2022-08-07T05:40:36;102602.22;;;20.72;54.81
69535;BME280;56754;51.568;5.048;2022-08-07T05:43:02;102599.50;;;20.72;54.64
69535;BME280;56754;51.568;5.048;2022-08-07T05:45:29;102596.47;;;20.74;54.93
69535;BME280;56754;51.568;5.048;2022-08-07T05:47:54;102594.53;;;20.74;54.52
69535;BME280;56754;51.568;5.048;2022-08-07T05:50:21;102600.75;;;20.75;54.56
69535;BME280;56754;51.568;5.048;2022-08-07T05:52:47;102596.91;;;20.76;54.62
69535;BME280;56754;51.568;5.048;2022-08-07T05:55:13;102598.50;;;20.77;55.26
69535;BME280;56754;51.568;5.048;2022-08-07T05:57:39;102598.94;;;20.79;55.01
69535;BME280;56754;51.568;5.048;2022-08-07T06:00:06;102595.91;;;20.80;54.64
69535;BME280;56754;51.568;5.048;2022-08-07T06:02:34;102606.09;;;20.83;54.86
69535;BME280;56754;51.568;5.048;2022-08-07T06:05:09;102602.72;;;20.86;54.54
69535;BME280;56754;51.568;5.048;2022-08-07T06:07:35;102612.91;;;20.89;54.08
69535;BME280;56754;51.568;5.048;2022-08-07T06:10:01;102616.88;;;20.92;54.12
69535;BME280;56754;51.568;5.048;2022-08-07T06:12:27;102620.50;;;20.96;53.81
69535;BME280;56754;51.568;5.048;2022-08-07T06:14:53;102621.44;;;21.00;53.50
69535;BME280;56754;51.568;5.048;2022-08-07T06:17:19;102621.19;;;21.05;53.72
69535;BME280;56754;51.568;5.048;2022-08-07T06:19:46;102621.34;;;21.09;53.30
69535;BME280;56754;51.568;5.048;2022-08-07T06:22:12;102620.66;;;21.12;53.23
69535;BME280;56754;51.568;5.048;2022-08-07T06:24:38;102625.06;;;21.17;53.09
69535;BME280;56754;51.568;5.048;2022-08-07T06:27:04;102616.22;;;21.20;52.77
69535;BME280;56754;51.568;5.048;2022-08-07T06:29:29;102614.44;;;21.24;52.77
69535;BME280;56754;51.568;5.048;2022-08-07T06:31:55;102613.75;;;21.27;52.84
69535;BME280;56754;51.568;5.048;2022-08-07T06:34:24;102613.53;;;21.32;52.95
69535;BME280;56754;51.568;5.048;2022-08-07T06:36:49;102613.66;;;21.35;52.42
69535;BME280;56754;51.568;5.048;2022-08-07T06:39:14;102597.47;;;21.39;52.57
69535;BME280;56754;51.568;5.048;2022-08-07T06:41:46;102602.22;;;21.42;52.25
69535;BME280;56754;51.568;5.048;2022-08-07T06:44:13;102596.13;;;21.45;52.29
69535;BME280;56754;51.568;5.048;2022-08-07T06:46:40;102598.16;;;21.48;52.29
69535;BME280;56754;51.568;5.048;2022-08-07T06:49:05;102600.19;;;21.51;51.20
69535;BME280;56754;51.568;5.048;2022-08-07T06:51:32;102603.81;;;21.55;52.05
69535;BME280;56754;51.568;5.048;2022-08-07T06:54:00;102608.56;;;21.58;51.53
69535;BME280;56754;51.568;5.048;2022-08-07T06:56:27;102607.09;;;21.61;51.85
69535;BME280;56754;51.568;5.048;2022-08-07T06:58:52;102594.72;;;21.64;51.52
69535;BME280;56754;51.568;5.048;2022-08-07T07:01:17;102595.63;;;21.68;51.52
69535;BME280;56754;51.568;5.048;2022-08-07T07:03:43;102600.38;;;21.71;51.43
69535;BME280;56754;51.568;5.048;2022-08-07T07:06:09;102597.34;;;21.72;51.48
69535;BME280;56754;51.568;5.048;2022-08-07T07:08:34;102598.22;;;21.76;51.25
69535;BME280;56754;51.568;5.048;2022-08-07T07:11:02;102603.81;;;21.80;51.26
69535;BME280;56754;51.568;5.048;2022-08-07T07:13:33;102601.50;;;21.82;51.36
69535;BME280;56754;51.568;5.048;2022-08-07T07:16:01;102590.28;;;21.84;50.86
69535;BME280;56754;51.568;5.048;2022-08-07T07:18:33;102591.97;;;21.88;51.08
69535;BME280;56754;51.568;5.048;2022-08-07T07:21:13;102585.41;;;21.89;50.69
69535;BME280;56754;51.568;5.048;2022-08-07T07:23:39;102587.75;;;21.91;50.67
69535;BME280;56754;51.568;5.048;2022-08-07T07:26:08;102594.13;;;21.95;50.75
69535;BME280;56754;51.568;5.048;2022-08-07T07:28:43;102598.06;;;21.97;50.54
69535;BME280;56754;51.568;5.048;2022-08-07T07:31:32;102591.94;;;22.00;50.46
69535;BME280;56754;51.568;5.048;2022-08-07T07:34:03;102582.28;;;22.03;50.41
69535;BME280;56754;51.568;5.048;2022-08-07T07:36:31;102573.78;;;22.04;50.37
69535;BME280;56754;51.568;5.048;2022-08-07T07:38:59;102578.88;;;22.06;50.20
69535;BME280;56754;51.568;5.048;2022-08-07T07:41:26;102582.84;;;22.09;49.89
69535;BME280;56754;51.568;5.048;2022-08-07T07:43:54;102587.59;;;22.12;50.27
69535;BME280;56754;51.568;5.048;2022-08-07T07:46:21;102582.59;;;22.14;49.66
69535;BME280;56754;51.568;5.048;2022-08-07T07:48:47;102588.50;;;22.16;49.58
69535;BME280;56754;51.568;5.048;2022-08-07T07:51:16;102588.16;;;22.17;49.56
69535;BME280;56754;51.568;5.048;2022-08-07T07:53:43;102585.13;;;22.19;49.63
69535;BME280;56754;51.568;5.048;2022-08-07T07:56:11;102589.88;;;22.22;49.46
69535;BME280;56754;51.568;5.048;2022-08-07T07:58:38;102589.50;;;22.23;49.67
69535;BME280;56754;51.568;5.048;2022-08-07T08:01:05;102593.47;;;22.26;49.40
69535;BME280;56754;51.568;5.048;2022-08-07T08:03:33;102586.09;;;22.26;49.42
69535;BME280;56754;51.568;5.048;2022-08-07T08:06:00;102584.59;;;22.29;48.98
69535;BME280;56754;51.568;5.048;2022-08-07T08:08:29;102588.91;;;22.30;49.00
69535;BME280;56754;51.568;5.048;2022-08-07T08:10:55;102599.13;;;22.33;49.06
69535;BME280;56754;51.568;5.048;2022-08-07T08:13:23;102595.72;;;22.36;48.63
69535;BME280;56754;51.568;5.048;2022-08-07T08:15:50;102594.56;;;22.37;48.96
69535;BME280;56754;51.568;5.048;2022-08-07T08:18:16;102589.91;;;22.38;49.17
69535;BME280;56754;51.568;5.048;2022-08-07T08:20:43;102591.16;;;22.40;48.88
69535;BME280;56754;51.568;5.048;2022-08-07T08:23:10;102592.41;;;22.43;48.84
69535;BME280;56754;51.568;5.048;2022-08-07T08:25:38;102598.28;;;22.45;48.70
69535;BME280;56754;51.568;5.048;2022-08-07T08:28:04;102596.38;;;22.45;48.60
69535;BME280;56754;51.568;5.048;2022-08-07T08:30:33;102592.16;;;22.48;48.46
69535;BME280;56754;51.568;5.048;2022-08-07T08:33:01;102585.56;;;22.49;48.63
69535;BME280;56754;51.568;5.048;2022-08-07T08:35:28;102587.13;;;22.50;48.53
69535;BME280;56754;51.568;5.048;2022-08-07T08:37:59;102591.88;;;22.53;48.67
69535;BME280;56754;51.568;5.048;2022-08-07T08:40:38;102590.75;;;22.54;48.36
69535;BME280;56754;51.568;5.048;2022-08-07T08:46:12;102589.25;;;22.57;48.27
69535;BME280;56754;51.568;5.048;2022-08-07T08:48:53;102592.41;;;22.59;48.03
69535;BME280;56754;51.568;5.048;2022-08-07T08:51:56;102583.91;;;22.60;48.24
69535;BME280;56754;51.568;5.048;2022-08-07T08:57:16;102582.44;;;22.63;47.98
69535;BME280;56754;51.568;5.048;2022-08-07T08:59:49;102586.72;;;22.64;48.07
69535;BME280;56754;51.568;5.048;2022-08-07T09:07:52;102574.75;;;22.68;48.07
69535;BME280;56754;51.568;5.048;2022-08-07T09:10:34;102575.22;;;22.70;48.05
69535;BME280;56754;51.568;5.048;2022-08-07T09:13:27;102570.53;;;22.71;48.18
69535;BME280;56754;51.568;5.048;2022-08-07T09:30:07;102560.63;;;22.79;47.35
69535;BME280;56754;51.568;5.048;2022-08-07T09:35:58;102555.63;;;22.81;47.37
69535;BME280;56754;51.568;5.048;2022-08-07T09:38:38;102552.09;;;22.80;47.04
69535;BME280;56754;51.568;5.048;2022-08-07T09:43:55;102557.97;;;22.82;46.89
69535;BME280;56754;51.568;5.048;2022-08-07T09:46:41;102554.91;;;22.84;47.08
69535;BME280;56754;51.568;5.048;2022-08-07T09:52:03;102544.44;;;22.86;46.92
69535;BME280;56754;51.568;5.048;2022-08-07T09:54:46;102540.13;;;22.85;47.29
69535;BME280;56754;51.568;5.048;2022-08-07T10:00:19;102541.38;;;22.87;47.29
69535;BME280;56754;51.568;5.048;2022-08-07T10:05:52;102523.84;;;22.88;47.42
69535;BME280;56754;51.568;5.048;2022-08-07T10:21:42;102526.00;;;22.95;47.13
69535;BME280;56754;51.568;5.048;2022-08-07T10:27:09;102513.59;;;22.98;47.39
69535;BME280;56754;51.568;5.048;2022-08-07T10:29:51;102503.13;;;23.00;47.22
69535;BME280;56754;51.568;5.048;2022-08-07T10:35:33;102503.56;;;23.02;46.79
69535;BME280;56754;51.568;5.048;2022-08-07T10:38:26;102514.91;;;23.04;46.58
69535;BME280;56754;51.568;5.048;2022-08-07T10:43:37;102502.88;;;23.05;46.52
69535;BME280;56754;51.568;5.048;2022-08-07T10:46:09;102498.19;;;23.05;46.52
69535;BME280;56754;51.568;5.048;2022-08-07T10:49:05;102503.66;;;23.05;46.67
69535;BME280;56754;51.568;5.048;2022-08-07T10:51:37;102507.16;;;23.06;46.38
69535;BME280;56754;51.568;5.048;2022-08-07T10:54:14;102495.47;;;23.05;46.39
69535;BME280;56754;51.568;5.048;2022-08-07T11:01:55;102492.81;;;23.09;46.62
69535;BME280;56754;51.568;5.048;2022-08-07T11:09:56;102488.59;;;23.11;46.21
69535;BME280;56754;51.568;5.048;2022-08-07T11:12:37;102474.59;;;23.13;46.41
69535;BME280;56754;51.568;5.048;2022-08-07T11:15:11;102470.75;;;23.14;46.06
69535;BME280;56754;51.568;5.048;2022-08-07T11:20:43;102471.97;;;23.16;46.41
69535;BME280;56754;51.568;5.048;2022-08-07T11:23:17;102459.91;;;23.17;46.29
69535;BME280;56754;51.568;5.048;2022-08-07T11:25:53;102461.47;;;23.19;46.02
69535;BME280;56754;51.568;5.048;2022-08-07T11:28:25;102458.41;;;23.20;46.37
69535;BME280;56754;51.568;5.048;2022-08-07T11:31:01;102449.06;;;23.21;45.91
69535;BME280;56754;51.568;5.048;2022-08-07T11:33:32;102451.78;;;23.21;45.86
69535;BME280;56754;51.568;5.048;2022-08-07T11:38:42;102451.06;;;23.24;45.23
69535;BME280;56754;51.568;5.048;2022-08-07T11:41:18;102452.69;;;23.25;45.60
69535;BME280;56754;51.568;5.048;2022-08-07T11:43:56;102450.72;;;23.26;45.32
69535;BME280;56754;51.568;5.048;2022-08-07T11:49:24;102444.13;;;23.27;45.42
69535;BME280;56754;51.568;5.048;2022-08-07T11:55:00;102439.09;;;23.29;45.11
69535;BME280;56754;51.568;5.048;2022-08-07T12:00:42;102437.94;;;23.30;44.97
69535;BME280;56754;51.568;5.048;2022-08-07T12:03:49;102427.81;;;23.30;45.27
69535;BME280;56754;51.568;5.048;2022-08-07T12:11:46;102423.25;;;23.34;45.39
69535;BME280;56754;51.568;5.048;2022-08-07T12:14:19;102419.34;;;23.35;45.56
69535;BME280;56754;51.568;5.048;2022-08-07T12:17:00;102422.88;;;23.36;45.59
69535;BME280;56754;51.568;5.048;2022-08-07T12:19:45;102422.94;;;23.39;45.80
69535;BME280;56754;51.568;5.048;2022-08-07T12:22:18;102424.88;;;23.39;45.35
69535;BME280;56754;51.568;5.048;2022-08-07T12:27:20;102409.41;;;23.43;45.51
69535;BME280;56754;51.568;5.048;2022-08-07T12:30:00;102419.59;;;23.46;45.42
69535;BME280;56754;51.568;5.048;2022-08-07T12:32:32;102418.09;;;23.49;44.88
69535;BME280;56754;51.568;5.048;2022-08-07T12:35:02;102413.47;;;23.53;44.44
69535;BME280;56754;51.568;5.048;2022-08-07T12:37:28;102403.84;;;23.59;45.03
69535;BME280;56754;51.568;5.048;2022-08-07T12:39:55;102406.69;;;23.66;45.09
69535;BME280;56754;51.568;5.048;2022-08-07T12:42:27;102403.00;;;23.74;47.00
69535;BME280;56754;51.568;5.048;2022-08-07T12:44:54;102399.25;;;23.82;48.12
69535;BME280;56754;51.568;5.048;2022-08-07T12:47:56;102407.56;;;23.90;47.66
69535;BME280;56754;51.568;5.048;2022-08-07T12:53:06;102407.88;;;24.07;48.13
69535;BME280;56754;51.568;5.048;2022-08-07T12:55:37;102408.03;;;24.15;46.50
69535;BME280;56754;51.568;5.048;2022-08-07T12:58:06;102400.72;;;24.22;47.73
69535;BME280;56754;51.568;5.048;2022-08-07T13:15:41;102396.31;;;24.64;47.22
69535;BME280;56754;51.568;5.048;2022-08-07T13:18:36;102389.78;;;24.68;47.24
69535;BME280;56754;51.568;5.048;2022-08-07T13:21:13;102389.81;;;24.72;47.22
69535;BME280;56754;51.568;5.048;2022-08-07T13:23:48;102390.28;;;24.78;47.09
69535;BME280;56754;51.568;5.048;2022-08-07T13:31:34;102382.28;;;24.92;46.54
69535;BME280;56754;51.568;5.048;2022-08-07T13:34:25;102376.53;;;25.01;46.51
69535;BME280;56754;51.568;5.048;2022-08-07T13:37:02;102377.00;;;25.06;46.53
69535;BME280;56754;51.568;5.048;2022-08-07T13:39:35;102377.84;;;25.10;46.08
69535;BME280;56754;51.568;5.048;2022-08-07T13:42:03;102384.97;;;25.15;46.27
69535;BME280;56754;51.568;5.048;2022-08-07T13:44:33;102371.31;;;25.18;45.93
69535;BME280;56754;51.568;5.048;2022-08-07T13:47:01;102376.84;;;25.22;45.73
69535;BME280;56754;51.568;5.048;2022-08-07T13:49:44;102368.66;;;25.26;45.39
69535;BME280;56754;51.568;5.048;2022-08-07T13:52:11;102365.19;;;25.29;45.20
69535;BME280;56754;51.568;5.048;2022-08-07T13:54:39;102367.16;;;25.32;45.18
69535;BME280;56754;51.568;5.048;2022-08-07T13:57:04;102374.28;;;25.36;45.43
69535;BME280;56754;51.568;5.048;2022-08-07T13:59:32;102376.25;;;25.39;44.91
69535;BME280;56754;51.568;5.048;2022-08-07T14:02:09;102365.34;;;25.43;45.04
69535;BME280;56754;51.568;5.048;2022-08-07T14:07:11;102368.19;;;25.50;44.91
69535;BME280;56754;51.568;5.048;2022-08-07T14:09:38;102361.94;;;25.53;44.95
69535;BME280;56754;51.568;5.048;2022-08-07T14:12:06;102352.97;;;25.56;44.88
69535;BME280;56754;51.568;5.048;2022-08-07T14:14:42;102361.22;;;25.60;44.93
69535;BME280;56754;51.568;5.048;2022-08-07T14:17:10;102356.56;;;25.64;44.86
69535;BME280;56754;51.568;5.048;2022-08-07T14:19:45;102352.28;;;25.67;44.77
69535;BME280;56754;51.568;5.048;2022-08-07T14:22:14;102350.41;;;25.71;44.92
69535;BME280;56754;51.568;5.048;2022-08-07T14:24:44;102359.78;;;25.73;44.48
69535;BME280;56754;51.568;5.048;2022-08-07T14:27:14;102352.00;;;25.75;44.42
69535;BME280;56754;51.568;5.048;2022-08-07T14:29:52;102355.94;;;25.78;44.40
69535;BME280;56754;51.568;5.048;2022-08-07T14:32:19;102352.81;;;25.79;44.37
69535;BME280;56754;51.568;5.048;2022-08-07T14:34:45;102349.38;;;25.82;44.10
69535;BME280;56754;51.568;5.048;2022-08-07T14:37:15;102356.81;;;25.85;43.82
69535;BME280;56754;51.568;5.048;2022-08-07T14:39:43;102351.38;;;25.89;43.87
69535;BME280;56754;51.568;5.048;2022-08-07T14:42:10;102350.19;;;25.90;43.77
69535;BME280;56754;51.568;5.048;2022-08-07T14:44:46;102350.63;;;25.92;43.72
69535;BME280;56754;51.568;5.048;2022-08-07T14:47:14;102341.25;;;25.97;43.70
69535;BME280;56754;51.568;5.048;2022-08-07T14:49:41;102353.78;;;25.98;43.39
69535;BME280;56754;51.568;5.048;2022-08-07T14:52:07;102340.50;;;26.00;43.54
69535;BME280;56754;51.568;5.048;2022-08-07T14:54:33;102349.91;;;26.02;43.32
69535;BME280;56754;51.568;5.048;2022-08-07T14:57:02;102340.94;;;26.05;43.43
69535;BME280;56754;51.568;5.048;2022-08-07T14:59:33;102340.16;;;26.08;43.17
69535;BME280;56754;51.568;5.048;2022-08-07T15:02:09;102340.59;;;26.10;43.40
69535;BME280;56754;51.568;5.048;2022-08-07T15:04:38;102342.56;;;26.14;43.55
69535;BME280;56754;51.568;5.048;2022-08-07T15:07:05;102347.69;;;26.15;43.56
69535;BME280;56754;51.568;5.048;2022-08-07T15:09:31;102344.94;;;26.15;43.38
69535;BME280;56754;51.568;5.048;2022-08-07T15:12:06;102341.03;;;26.16;43.49
69535;BME280;56754;51.568;5.048;2022-08-07T15:14:47;102334.38;;;26.17;43.72